createdAt,value
2022-11-05T00:05:13.024Z,8.80
2022-11-05T00:10:24.701Z,9.10
2022-11-05T00:15:47.232Z,9.00
2022-11-05T00:20:49.841Z,8.27
2022-11-05T00:25:58.929Z,8.67
2022-11-05T00:31:13.037Z,8.40
2022-11-05T00:36:15.351Z,8.27
2022-11-05T00:41:17.625Z,8.33
2022-11-05T00:46:19.896Z,8.70
2022-11-05T00:51:22.560Z,8.80
2022-11-05T00:56:24.861Z,8.57
2022-11-05T01:01:27.258Z,8.97
2022-11-05T01:06:29.653Z,8.93
2022-11-05T01:11:35.149Z,8.57
2022-11-05T01:16:38.605Z,8.60
2022-11-05T01:21:40.888Z,8.07
2022-11-05T01:26:43.197Z,8.13
2022-11-05T01:31:45.543Z,8.30
2022-11-05T01:36:47.910Z,7.77
2022-11-05T01:41:50.243Z,8.57
2022-11-05T01:46:52.519Z,8.97
2022-11-05T01:51:55.969Z,8.80
2022-11-05T01:57:10.796Z,8.27
2022-11-05T02:02:13.226Z,8.33
2022-11-05T02:07:17.165Z,7.93
2022-11-05T02:12:21.179Z,7.73
2022-11-05T02:17:31.052Z,8.77
2022-11-05T02:22:54.462Z,8.47
2022-11-05T02:28:21.712Z,9.30
2022-11-05T02:33:38.605Z,9.50
2022-11-05T02:39:01.767Z,9.27
2022-11-05T02:44:31.221Z,9.70
2022-11-05T02:49:51.616Z,9.90
2022-11-05T02:54:56.608Z,9.83
2022-11-05T03:00:26.944Z,9.90
2022-11-05T03:05:44.722Z,10.50
2022-11-05T03:10:59.467Z,11.27
2022-11-05T03:16:13.208Z,9.93
2022-11-05T03:21:42.509Z,11.23
2022-11-05T03:26:54.352Z,10.93
2022-11-05T03:32:01.789Z,11.03
2022-11-05T03:37:06.195Z,10.43
2022-11-05T03:42:12.784Z,10.90
2022-11-05T03:47:20.205Z,11.27
2022-11-05T03:52:27.232Z,10.63
2022-11-05T03:57:33.400Z,10.83
2022-11-05T04:02:37.146Z,11.17
2022-11-05T04:07:58.558Z,12.03
2022-11-05T04:13:19.367Z,11.90
2022-11-05T04:18:22.116Z,11.73
2022-11-05T04:23:42.828Z,12.13
2022-11-05T04:29:07.762Z,12.67
2022-11-05T04:34:10.317Z,11.77
2022-11-05T04:39:12.630Z,12.13
2022-11-05T04:44:16.234Z,12.43
2022-11-05T04:49:18.560Z,12.33
2022-11-05T04:54:20.853Z,13.00
2022-11-05T04:59:23.094Z,12.07
2022-11-05T05:04:25.376Z,11.57
2022-11-05T05:09:27.698Z,11.57
2022-11-05T05:14:30.050Z,11.40
2022-11-05T05:19:52.408Z,10.90
2022-11-05T05:24:56.518Z,11.47
2022-11-05T05:29:59.600Z,10.93
2022-11-05T05:35:01.914Z,10.93
2022-11-05T05:40:04.581Z,11.20
2022-11-05T05:45:07.144Z,10.93
2022-11-05T05:50:09.665Z,11.50
2022-11-05T05:55:12.654Z,10.90
2022-11-05T06:00:15.156Z,11.40
2022-11-05T06:05:17.580Z,10.97
2022-11-05T06:10:19.886Z,10.37
2022-11-05T06:15:22.276Z,10.77
2022-11-05T06:20:24.724Z,10.53
2022-11-05T06:25:27.054Z,10.93
2022-11-05T06:30:29.492Z,10.50
2022-11-05T06:35:32.186Z,11.17
2022-11-05T06:40:35.774Z,11.67
2022-11-05T06:45:38.189Z,11.63
2022-11-05T06:50:44.340Z,12.63
2022-11-05T06:55:49.819Z,13.53
2022-11-05T07:00:52.428Z,12.43
2022-11-05T07:05:57.957Z,12.00
2022-11-05T07:11:00.362Z,11.33
2022-11-05T07:16:02.780Z,11.20
2022-11-05T07:21:05.707Z,11.20
2022-11-05T07:26:07.970Z,10.97
2022-11-05T07:31:10.652Z,10.70
2022-11-05T07:36:13.481Z,10.00
2022-11-05T07:41:15.770Z,10.10
2022-11-05T07:46:18.090Z,9.77
2022-11-05T07:51:20.529Z,9.60
2022-11-05T07:56:22.999Z,9.67
2022-11-05T08:01:25.689Z,9.43
2022-11-05T08:06:28.092Z,10.20
2022-11-05T08:11:31.194Z,9.67
2022-11-05T08:16:33.519Z,8.60
2022-11-05T08:21:35.808Z,9.97
2022-11-05T08:26:38.068Z,9.43
2022-11-05T08:31:40.336Z,8.97
2022-11-05T08:36:46.232Z,8.87
2022-11-05T08:41:48.886Z,10.50
2022-11-05T08:46:51.389Z,10.50
2022-11-05T08:51:53.769Z,10.60
2022-11-05T08:56:56.162Z,10.63
2022-11-05T09:01:58.980Z,9.90
2022-11-05T09:07:01.483Z,9.67
2022-11-05T09:12:12.388Z,9.23
2022-11-05T09:17:21.378Z,9.20
2022-11-05T09:22:23.668Z,10.37
2022-11-05T09:27:27.615Z,9.67
2022-11-05T09:32:31.676Z,9.37
2022-11-05T09:37:34.094Z,9.33
2022-11-05T09:42:41.093Z,8.87
2022-11-05T09:47:53.560Z,9.70
2022-11-05T09:52:56.704Z,8.63
2022-11-05T09:58:10.933Z,8.37
2022-11-05T10:03:19.204Z,8.27
2022-11-05T10:08:32.400Z,7.70
2022-11-05T10:13:56.278Z,7.10
2022-11-05T10:19:24.424Z,7.13
2022-11-05T10:24:27.868Z,7.50
2022-11-05T10:29:33.554Z,7.30
2022-11-05T10:34:38.724Z,7.53
2022-11-05T10:39:41.028Z,6.63
2022-11-05T10:44:49.504Z,6.63
2022-11-05T10:49:58.952Z,6.93
2022-11-05T10:55:06.807Z,6.77
2022-11-05T11:00:15.753Z,6.53
2022-11-05T11:05:22.205Z,6.63
2022-11-05T11:10:25.492Z,5.93
2022-11-05T11:15:32.518Z,6.03
2022-11-05T11:20:43.246Z,6.40
2022-11-05T11:26:00.695Z,6.23
2022-11-05T11:31:23.542Z,5.50
2022-11-05T11:36:42.705Z,6.53
2022-11-05T11:41:46.089Z,5.37
2022-11-05T11:46:50.977Z,5.27
2022-11-05T11:52:01.136Z,5.90
2022-11-05T11:57:03.701Z,5.70
2022-11-05T12:02:26.277Z,6.00
2022-11-05T12:07:39.892Z,5.97
2022-11-05T12:13:06.037Z,6.37
2022-11-05T12:18:35.307Z,6.17
2022-11-05T12:24:01.632Z,5.37
2022-11-05T12:29:22.383Z,4.90
2022-11-05T12:34:37.445Z,3.20
2022-11-05T12:40:01.072Z,3.07
2022-11-05T12:45:37.279Z,2.40
2022-11-05T12:50:52.671Z,2.20
2022-11-05T12:55:58.485Z,1.90
2022-11-05T13:01:28.231Z,1.63
2022-11-05T13:06:37.176Z,1.67
2022-11-05T13:11:49.515Z,1.40
2022-11-05T13:17:10.052Z,1.80
2022-11-05T13:22:36.277Z,1.33
2022-11-05T13:27:57.527Z,1.70
2022-11-05T13:33:14.846Z,1.50
2022-11-05T13:38:45.249Z,1.50
2022-11-05T13:44:09.152Z,1.47
2022-11-05T13:49:45.578Z,1.60
2022-11-05T13:55:12.625Z,1.50
2022-11-05T14:00:27.149Z,1.50
2022-11-05T14:05:38.138Z,1.20
2022-11-05T14:10:45.008Z,1.47
2022-11-05T14:16:09.497Z,1.40
2022-11-05T14:21:27.096Z,1.50
2022-11-05T14:26:32.093Z,1.50
2022-11-05T14:32:09.285Z,1.30
2022-11-05T14:37:12.428Z,1.67
2022-11-05T14:42:28.594Z,1.37
2022-11-05T14:47:38.645Z,1.40
2022-11-05T14:52:51.825Z,1.47
2022-11-05T14:57:54.044Z,1.30
2022-11-05T15:03:01.839Z,1.50
2022-11-05T15:08:23.034Z,1.53
2022-11-05T15:13:35.395Z,1.50
2022-11-05T15:18:43.993Z,1.70
2022-11-05T15:23:48.822Z,1.37
2022-11-05T15:28:54.602Z,1.50
2022-11-05T15:34:17.897Z,2.13
2022-11-05T15:39:54.511Z,2.10
2022-11-05T15:44:58.897Z,2.23
2022-11-05T15:50:14.465Z,2.07
2022-11-05T15:55:23.696Z,3.73
2022-11-05T16:00:28.652Z,3.80
2022-11-05T16:05:34.458Z,3.80
2022-11-05T16:10:38.635Z,3.80
2022-11-05T16:15:58.406Z,3.60
2022-11-05T16:21:03.445Z,4.50
2022-11-05T16:26:05.895Z,3.63
2022-11-05T16:31:08.220Z,5.57
2022-11-05T16:36:11.014Z,5.30
2022-11-05T16:41:19.555Z,4.03
2022-11-05T16:46:23.914Z,5.20
2022-11-05T16:51:28.060Z,4.27
2022-11-05T16:56:30.741Z,3.90
2022-11-05T17:01:34.426Z,5.83
2022-11-05T17:06:36.774Z,4.57
2022-11-05T17:11:39.056Z,4.90
2022-11-05T17:16:41.388Z,9.50
2022-11-05T17:21:43.612Z,7.10
2022-11-05T17:26:45.960Z,6.00
2022-11-05T17:31:48.850Z,6.10
2022-11-05T17:36:51.171Z,5.83
2022-11-05T17:41:54.803Z,6.17
2022-11-05T17:46:57.053Z,4.50
2022-11-05T17:51:59.258Z,4.50
2022-11-05T17:57:03.625Z,4.90
2022-11-05T18:02:06.441Z,5.27
2022-11-05T18:07:09.037Z,8.83
2022-11-05T18:12:11.266Z,5.03
2022-11-05T18:17:13.541Z,4.87
2022-11-05T18:22:18.215Z,5.23
2022-11-05T18:27:20.573Z,5.20
2022-11-05T18:32:22.886Z,4.97
2022-11-05T18:37:25.486Z,4.93
2022-11-05T18:42:27.749Z,5.53
2022-11-05T18:47:32.336Z,4.70
2022-11-05T18:52:34.600Z,3.53
2022-11-05T18:57:36.918Z,3.80
2022-11-05T19:02:39.412Z,5.33
2022-11-05T19:07:41.744Z,6.70
2022-11-05T19:12:44.219Z,4.03
2022-11-05T19:17:46.546Z,3.80
2022-11-05T19:22:49.170Z,3.40
2022-11-05T19:27:51.417Z,4.43
2022-11-05T19:32:53.702Z,3.70
2022-11-05T19:37:56.013Z,3.53
2022-11-05T19:42:58.257Z,3.07
2022-11-05T19:48:00.481Z,3.60
2022-11-05T19:53:03.215Z,3.37
2022-11-05T19:58:05.448Z,3.20
2022-11-05T20:03:08.076Z,3.30
2022-11-05T20:08:10.866Z,3.40
2022-11-05T20:13:19.468Z,3.37
2022-11-05T20:18:22.474Z,2.70
2022-11-05T20:23:24.777Z,3.10
2022-11-05T20:28:27.707Z,2.90
2022-11-05T20:33:30.083Z,2.90
2022-11-05T20:38:32.881Z,3.13
2022-11-05T20:43:36.050Z,2.63
2022-11-05T20:48:38.385Z,2.70
2022-11-05T20:53:41.464Z,2.80
2022-11-05T20:58:43.856Z,3.20
2022-11-05T21:03:47.589Z,3.07
2022-11-05T21:08:51.540Z,3.10
2022-11-05T21:13:54.753Z,4.40
2022-11-05T21:18:57.143Z,5.13
2022-11-05T21:23:59.659Z,3.80
2022-11-05T21:29:01.911Z,3.30
2022-11-05T21:34:04.260Z,3.23
2022-11-05T21:39:13.187Z,3.80
2022-11-05T21:44:16.121Z,3.83
2022-11-05T21:49:18.865Z,3.17
2022-11-05T21:54:41.772Z,3.20
2022-11-05T21:59:51.928Z,2.93
2022-11-05T22:04:57.435Z,2.83
2022-11-05T22:10:00.542Z,2.80
2022-11-05T22:15:03.305Z,3.00
2022-11-05T22:20:06.459Z,3.10
2022-11-05T22:25:09.321Z,3.37
2022-11-05T22:30:12.899Z,2.80
2022-11-05T22:35:15.205Z,3.00
2022-11-05T22:40:17.750Z,2.53
2022-11-05T22:45:20.239Z,2.90
2022-11-05T22:50:22.509Z,2.60
2022-11-05T22:55:25.096Z,2.47
2022-11-05T23:00:37.687Z,2.60
2022-11-05T23:05:39.975Z,2.50
2022-11-05T23:11:01.311Z,2.40
2022-11-05T23:16:22.268Z,2.57
2022-11-05T23:21:43.027Z,2.23
2022-11-05T23:26:51.223Z,2.60
2022-11-05T23:32:12.061Z,2.57
2022-11-05T23:37:33.070Z,2.43
2022-11-05T23:42:54.400Z,2.13
2022-11-05T23:48:15.437Z,2.27
2022-11-05T23:53:18.431Z,2.10
2022-11-05T23:58:20.745Z,2.10
